Time;durP1;ratioP1;P1;durP2;ratioP2;P2;SDS_P1;SDS_P2;PMS_P1;PMS_P2;Temp;Humidity;BMP_temperature;BMP_pressure;BME280_temperature;BME280_humidity;BME280_pressure;Samples;Min_cycle;Max_cycle;Signal;HPM_P1;HPM_P2
2022/03/31 00:00:31;;;;;;;6.93;2.05;;;3.10;99.90;;;;;;5033422;28;20041;-79
2022/03/31 00:02:57;;;;;;;2.70;1.63;;;3.10;99.90;;;;;;5033602;28;20057;-79
2022/03/31 00:05:23;;;;;;;4.82;1.67;;;3.10;99.90;;;;;;5033257;28;20038;-78
2022/03/31 00:07:53;;;;;;;5.90;1.70;;;3.00;99.90;;;;;;5033367;28;20175;-77
2022/03/31 00:10:21;;;;;;;4.07;1.88;;;3.00;99.90;;;;;;5033417;28;20128;-77
2022/03/31 00:12:47;;;;;;;8.25;1.65;;;3.00;99.90;;;;;;5033408;28;20046;-78
2022/03/31 00:15:13;;;;;;;7.22;2.38;;;3.00;99.90;;;;;;5033364;28;20124;-77
2022/03/31 00:17:38;;;;;;;7.10;1.80;;;3.00;99.90;;;;;;5033337;28;20048;-79
2022/03/31 00:20:04;;;;;;;6.65;1.70;;;3.00;99.90;;;;;;5033364;28;20620;-79
2022/03/31 00:22:30;;;;;;;6.33;1.90;;;3.00;99.90;;;;;;5033300;28;20048;-78
2022/03/31 00:24:56;;;;;;;4.85;1.50;;;2.90;99.90;;;;;;5033332;28;20300;-78
2022/03/31 00:27:21;;;;;;;3.90;1.70;;;2.90;99.90;;;;;;5033224;28;20562;-78
2022/03/31 00:29:47;;;;;;;2.80;1.55;;;2.90;99.90;;;;;;5033007;28;20115;-79
2022/03/31 00:32:13;;;;;;;2.55;1.73;;;2.90;99.90;;;;;;5033016;28;20065;-79
2022/03/31 00:34:39;;;;;;;4.37;1.60;;;2.90;99.90;;;;;;5015715;28;20056;-77
2022/03/31 00:37:05;;;;;;;6.95;2.00;;;2.90;99.90;;;;;;5033142;28;20538;-76
2022/03/31 00:39:34;;;;;;;6.27;2.00;;;3.20;99.90;;;;;;5033181;28;20409;-79
2022/03/31 00:42:01;;;;;;;3.45;1.70;;;3.70;99.90;;;;;;5033138;28;20041;-79
2022/03/31 00:44:26;;;;;;;3.60;1.60;;;3.00;99.90;;;;;;5032936;28;20053;-79
2022/03/31 00:46:54;;;;;;;5.00;1.70;;;2.90;99.90;;;;;;5032729;28;20049;-79
2022/03/31 00:49:22;;;;;;;4.40;1.70;;;3.00;99.90;;;;;;5032651;28;20375;-76
2022/03/31 00:51:50;;;;;;;9.23;2.22;;;3.00;99.90;;;;;;5033039;28;20091;-77
2022/03/31 00:54:18;;;;;;;5.38;1.90;;;2.90;99.90;;;;;;5032948;28;20057;-77
2022/03/31 00:56:44;;;;;;;4.57;1.67;;;3.00;99.90;;;;;;5032653;28;20612;-78
2022/03/31 00:59:13;;;;;;;3.83;1.60;;;2.90;99.90;;;;;;5015407;28;20045;-79
2022/03/31 01:01:40;;;;;;;2.65;1.50;;;2.90;99.90;;;;;;5032681;28;20041;-76
2022/03/31 01:04:06;;;;;;;4.65;1.55;;;2.80;99.90;;;;;;5036015;28;20049;-76
2022/03/31 01:06:33;;;;;;;2.75;1.60;;;2.80;99.90;;;;;;5036434;28;20042;-79
2022/03/31 01:08:59;;;;;;;2.77;1.40;;;2.70;99.90;;;;;;5036266;28;20077;-76
2022/03/31 01:11:25;;;;;;;3.50;1.48;;;2.70;99.90;;;;;;5035889;28;20284;-75
2022/03/31 01:13:52;;;;;;;3.45;1.67;;;2.70;99.90;;;;;;5036332;28;20124;-75
2022/03/31 01:16:17;;;;;;;3.67;1.47;;;2.60;99.90;;;;;;5036072;28;20167;-77
2022/03/31 01:18:43;;;;;;;4.45;1.67;;;2.70;99.90;;;;;;5036164;28;20095;-77
2022/03/31 01:21:12;;;;;;;7.35;1.80;;;2.60;99.90;;;;;;5036142;28;20045;-78
2022/03/31 01:23:38;;;;;;;3.90;1.60;;;2.50;99.90;;;;;;5035862;28;20041;-75
2022/03/31 01:26:10;;;;;;;3.65;1.90;;;2.60;99.90;;;;;;5036028;28;20132;-75
2022/03/31 01:28:41;;;;;;;4.72;1.70;;;2.50;99.90;;;;;;5035853;28;20045;-79
2022/03/31 01:31:08;;;;;;;3.38;1.52;;;2.40;99.90;;;;;;5035259;28;20049;-76
2022/03/31 01:33:34;;;;;;;5.85;1.85;;;2.40;99.90;;;;;;5035862;28;20092;-76
2022/03/31 01:36:01;;;;;;;4.97;1.60;;;2.40;99.90;;;;;;5035831;28;20042;-76
2022/03/31 01:38:27;;;;;;;3.40;1.75;;;2.40;99.90;;;;;;5035903;28;20046;-77
2022/03/31 01:40:53;;;;;;;5.82;1.95;;;2.40;99.90;;;;;;5035729;28;20049;-78
2022/03/31 01:43:20;;;;;;;7.05;1.90;;;2.40;99.90;;;;;;5035664;28;20527;-76
2022/03/31 01:45:48;;;;;;;5.45;2.13;;;2.30;99.90;;;;;;5035557;28;20065;-78
2022/03/31 01:48:14;;;;;;;7.50;2.30;;;2.30;99.90;;;;;;5035662;28;20087;-77
2022/03/31 01:50:40;;;;;;;5.77;2.20;;;2.40;99.90;;;;;;5035687;28;20041;-76
2022/03/31 01:53:06;;;;;;;4.70;3.20;;;2.50;99.90;;;;;;5035442;28;20061;-75
2022/03/31 01:55:32;;;;;;;7.22;2.50;;;2.30;99.90;;;;;;5035761;28;20046;-77
2022/03/31 01:57:58;;;;;;;6.28;3.22;;;2.30;99.90;;;;;;5035235;28;20081;-78
2022/03/31 02:00:24;;;;;;;9.20;3.13;;;2.40;99.90;;;;;;5035044;28;20075;-77
2022/03/31 02:02:50;;;;;;;6.97;3.22;;;2.30;99.90;;;;;;5035585;28;20288;-75
2022/03/31 02:05:15;;;;;;;7.97;3.35;;;2.30;99.90;;;;;;5035318;28;20101;-75
2022/03/31 02:07:41;;;;;;;6.38;3.50;;;2.40;99.90;;;;;;5035602;28;20080;-75
2022/03/31 02:10:11;;;;;;;7.20;3.25;;;2.30;99.90;;;;;;5035427;28;20053;-76
2022/03/31 02:12:37;;;;;;;9.18;3.80;;;2.40;99.90;;;;;;5034925;28;20056;-77
2022/03/31 02:15:04;;;;;;;8.35;4.05;;;2.20;99.90;;;;;;5034431;28;20041;-76
2022/03/31 02:17:30;;;;;;;6.85;4.00;;;2.20;99.90;;;;;;5035176;28;20080;-77
2022/03/31 02:19:56;;;;;;;7.28;4.65;;;2.30;99.90;;;;;;5035335;28;20491;-77
2022/03/31 02:22:22;;;;;;;11.20;4.50;;;2.30;99.90;;;;;;5034960;28;20128;-76
2022/03/31 02:24:48;;;;;;;9.75;4.80;;;2.30;99.90;;;;;;5034889;28;20129;-76
2022/03/31 02:27:14;;;;;;;8.98;4.90;;;2.30;99.90;;;;;;5034652;28;20049;-76
2022/03/31 02:29:39;;;;;;;9.98;5.10;;;2.30;99.90;;;;;;5034575;28;20065;-77
2022/03/31 02:32:07;;;;;;;9.57;4.80;;;2.40;99.90;;;;;;5034847;28;20106;-78
2022/03/31 02:34:33;;;;;;;10.05;4.75;;;2.30;99.90;;;;;;5034900;28;20050;-77
2022/03/31 02:36:59;;;;;;;8.80;4.97;;;2.30;99.90;;;;;;5034663;28;20485;-76
2022/03/31 02:39:24;;;;;;;6.97;4.30;;;2.30;99.90;;;;;;5034717;28;20096;-76
2022/03/31 02:41:50;;;;;;;8.45;4.72;;;2.30;99.90;;;;;;5034617;28;20049;-75
2022/03/31 02:44:16;;;;;;;6.10;4.60;;;2.40;99.90;;;;;;5034537;28;20485;-75
2022/03/31 02:46:42;;;;;;;8.30;4.13;;;2.40;99.90;;;;;;5034541;28;20054;-76
2022/03/31 02:49:08;;;;;;;6.47;4.40;;;2.40;99.90;;;;;;5034474;28;20045;-79
2022/03/31 02:51:34;;;;;;;6.80;4.30;;;2.40;99.90;;;;;;5034909;28;20366;-77
2022/03/31 02:56:45;;;;;;;8.00;4.15;;;2.30;99.90;;;;;;5034126;28;20054;-78
2022/03/31 02:59:10;;;;;;;6.32;3.90;;;2.30;99.90;;;;;;5034506;28;20053;-75
2022/03/31 03:01:37;;;;;;;5.95;3.97;;;2.30;99.90;;;;;;5034387;28;20099;-75
2022/03/31 03:04:02;;;;;;;6.65;3.97;;;2.30;99.90;;;;;;5034325;28;20033;-75
2022/03/31 03:06:28;;;;;;;5.78;4.07;;;3.20;99.90;;;;;;5034061;28;20045;-75
2022/03/31 03:08:54;;;;;;;8.23;4.07;;;2.30;99.90;;;;;;5034470;28;20053;-76
2022/03/31 03:11:20;;;;;;;6.35;4.28;;;2.40;99.90;;;;;;5033726;28;20060;-76
2022/03/31 03:13:46;;;;;;;8.95;4.60;;;2.40;99.90;;;;;;5034175;28;20401;-78
2022/03/31 03:16:13;;;;;;;7.63;4.15;;;2.30;99.90;;;;;;5034130;28;20045;-77
2022/03/31 03:18:39;;;;;;;7.28;4.50;;;2.40;99.90;;;;;;5034142;28;20045;-74
2022/03/31 03:21:07;;;;;;;8.82;4.20;;;2.30;99.90;;;;;;5033944;28;20099;-74
2022/03/31 03:23:36;;;;;;;8.68;4.88;;;2.40;99.90;;;;;;5033895;28;20068;-77
2022/03/31 03:26:02;;;;;;;7.55;4.97;;;2.40;99.90;;;;;;5033555;28;20049;-75
2022/03/31 03:28:29;;;;;;;8.80;5.30;;;2.30;99.90;;;;;;5033813;28;20042;-75
2022/03/31 03:30:55;;;;;;;9.02;5.18;;;2.30;99.90;;;;;;5033490;28;20527;-78
2022/03/31 03:33:20;;;;;;;7.47;4.72;;;2.40;99.90;;;;;;5033863;28;20092;-76
2022/03/31 03:35:46;;;;;;;9.80;5.18;;;2.40;99.90;;;;;;5033969;28;20053;-78
2022/03/31 03:38:14;;;;;;;12.10;5.03;;;2.40;99.90;;;;;;5033573;28;20057;-78
2022/03/31 03:40:40;;;;;;;7.13;4.88;;;2.40;99.90;;;;;;5033192;28;20124;-78
2022/03/31 03:43:06;;;;;;;7.15;5.22;;;2.40;99.90;;;;;;5033699;28;20157;-78
2022/03/31 03:45:32;;;;;;;10.05;5.72;;;2.40;99.90;;;;;;5033815;28;20511;-75
2022/03/31 03:47:58;;;;;;;9.15;4.85;;;2.40;99.90;;;;;;5033630;28;20046;-75
2022/03/31 03:50:25;;;;;;;10.02;5.32;;;2.40;99.90;;;;;;5033705;28;20080;-74
2022/03/31 03:52:51;;;;;;;9.77;5.57;;;2.40;99.90;;;;;;5033629;28;20050;-76
2022/03/31 03:55:17;;;;;;;8.47;6.00;;;2.30;99.90;;;;;;5033055;28;20478;-77
2022/03/31 03:57:43;;;;;;;10.07;6.28;;;2.30;99.90;;;;;;5033786;28;20096;-75
2022/03/31 04:00:10;;;;;;;9.32;6.03;;;2.30;99.90;;;;;;5033661;28;20037;-77
2022/03/31 04:02:36;;;;;;;11.35;6.03;;;2.30;99.90;;;;;;5033656;28;20049;-75
2022/03/31 04:05:03;;;;;;;9.65;6.05;;;2.30;99.90;;;;;;5033484;28;20042;-75
2022/03/31 04:07:28;;;;;;;12.80;6.00;;;2.30;99.90;;;;;;5033405;28;20072;-77
2022/03/31 04:09:54;;;;;;;10.65;7.28;;;2.30;99.90;;;;;;5033067;28;20493;-77
2022/03/31 04:12:19;;;;;;;10.95;6.45;;;2.30;99.90;;;;;;5033559;28;20493;-77
2022/03/31 04:14:45;;;;;;;9.85;5.30;;;2.30;99.90;;;;;;5033488;28;20045;-78
2022/03/31 04:17:10;;;;;;;9.27;6.10;;;2.30;99.90;;;;;;5033636;28;20042;-76
2022/03/31 04:19:36;;;;;;;11.50;6.80;;;2.30;99.90;;;;;;5033083;28;20136;-75
2022/03/31 04:22:01;;;;;;;11.30;7.07;;;2.30;99.90;;;;;;5033122;28;20056;-77
2022/03/31 04:24:27;;;;;;;12.05;6.80;;;2.30;99.90;;;;;;5033168;28;20041;-77
2022/03/31 04:26:52;;;;;;;10.07;6.60;;;2.30;99.90;;;;;;5015791;28;20416;-75
2022/03/31 04:29:18;;;;;;;11.48;7.32;;;2.30;99.90;;;;;;5032886;28;20363;-79
2022/03/31 04:31:44;;;;;;;11.05;7.10;;;2.30;99.90;;;;;;5033352;28;20045;-77
2022/03/31 04:34:11;;;;;;;11.95;7.63;;;2.40;99.90;;;;;;5033374;28;20037;-78
2022/03/31 04:36:37;;;;;;;10.48;7.00;;;2.30;99.90;;;;;;5033023;28;20452;-77
2022/03/31 04:39:03;;;;;;;12.65;8.15;;;2.30;99.90;;;;;;5036369;28;20045;-78
2022/03/31 04:41:29;;;;;;;10.90;7.27;;;2.30;99.90;;;;;;5036797;28;20038;-78
2022/03/31 04:43:55;;;;;;;10.52;7.38;;;2.30;99.90;;;;;;5036701;28;20802;-77
2022/03/31 04:46:20;;;;;;;12.75;8.45;;;2.40;99.90;;;;;;5036856;28;20056;-76
2022/03/31 04:48:46;;;;;;;9.35;6.20;;;2.40;99.90;;;;;;5036587;28;20049;-76
2022/03/31 04:51:12;;;;;;;12.43;7.75;;;2.40;99.90;;;;;;5036596;28;20421;-76
2022/03/31 04:53:38;;;;;;;10.98;7.93;;;2.40;99.90;;;;;;5036405;28;20052;-78
2022/03/31 04:56:03;;;;;;;11.20;8.10;;;2.40;99.90;;;;;;5036657;28;20034;-74
2022/03/31 04:58:30;;;;;;;10.43;7.00;;;2.40;99.90;;;;;;5036716;28;20053;-77
2022/03/31 05:00:55;;;;;;;13.67;8.03;;;2.30;99.90;;;;;;5036495;28;20056;-76
2022/03/31 05:03:21;;;;;;;12.60;7.78;;;2.40;99.90;;;;;;5018863;28;20045;-78
2022/03/31 05:05:47;;;;;;;11.57;7.97;;;2.30;99.90;;;;;;5036666;28;20204;-76
2022/03/31 05:08:13;;;;;;;11.13;7.60;;;2.30;99.90;;;;;;5036346;28;20544;-75
2022/03/31 05:10:38;;;;;;;11.32;7.95;;;2.30;99.90;;;;;;5036267;28;20034;-77
2022/03/31 05:13:04;;;;;;;12.20;8.00;;;2.30;99.90;;;;;;5036317;28;20415;-74
2022/03/31 05:15:30;;;;;;;11.50;7.50;;;2.30;99.90;;;;;;5036402;28;20495;-75
2022/03/31 05:17:55;;;;;;;11.52;7.18;;;2.20;99.90;;;;;;5036298;28;20120;-76
2022/03/31 05:20:22;;;;;;;10.52;7.13;;;2.30;99.90;;;;;;5036270;28;20052;-76
2022/03/31 05:22:48;;;;;;;10.52;7.40;;;2.20;99.90;;;;;;5035829;28;20128;-77
2022/03/31 05:25:14;;;;;;;10.98;7.10;;;2.30;99.90;;;;;;5036005;28;20033;-76
2022/03/31 05:27:45;;;;;;;10.90;7.13;;;2.20;99.90;;;;;;5036149;28;20128;-77
2022/03/31 05:30:17;;;;;;;12.20;7.85;;;2.30;99.90;;;;;;5035735;28;20417;-76
2022/03/31 05:32:42;;;;;;;11.57;7.50;;;2.30;99.90;;;;;;5036107;28;20054;-76
2022/03/31 05:35:09;;;;;;;10.40;7.75;;;2.30;99.90;;;;;;5036293;28;20044;-77
2022/03/31 05:37:35;;;;;;;;;;;2.30;99.90;;;;;;5036156;28;20104;-78
2022/03/31 05:40:05;;;;;;;10.55;7.43;;;2.30;99.90;;;;;;5035377;28;19924;-76
2022/03/31 05:42:32;;;;;;;13.40;6.93;;;2.30;99.90;;;;;;5035139;28;20132;-75
2022/03/31 05:44:58;;;;;;;;;;;2.30;99.90;;;;;;5036161;28;20084;-76
2022/03/31 05:47:24;;;;;;;11.00;7.60;;;2.40;99.90;;;;;;5035863;28;19921;-77
2022/03/31 05:49:50;;;;;;;10.40;7.22;;;2.30;99.90;;;;;;5034225;28;20049;-77
2022/03/31 05:52:15;;;;;;;10.27;7.28;;;2.40;99.90;;;;;;5035446;28;20532;-76
2022/03/31 05:54:42;;;;;;;11.07;7.40;;;2.30;99.90;;;;;;5035678;28;20508;-76
2022/03/31 05:57:07;;;;;;;10.50;7.40;;;2.40;99.90;;;;;;5035749;28;20045;-77
2022/03/31 05:59:33;;;;;;;10.23;6.65;;;2.40;99.90;;;;;;5035474;28;20041;-76
2022/03/31 06:01:59;;;;;;;10.55;6.85;;;2.40;99.90;;;;;;5035590;28;20543;-76
2022/03/31 06:04:24;;;;;;;9.75;6.75;;;2.50;99.90;;;;;;5035151;28;20037;-77
2022/03/31 06:06:50;;;;;;;12.25;7.93;;;2.30;99.90;;;;;;5035022;28;20147;-75
2022/03/31 06:09:16;;;;;;;9.98;7.45;;;2.30;99.90;;;;;;5035352;28;20580;-77
2022/03/31 06:11:42;;;;;;;10.60;8.23;;;2.30;99.90;;;;;;5035477;28;20047;-80
2022/03/31 06:14:09;;;;;;;10.97;7.87;;;2.30;99.90;;;;;;5035189;28;20048;-77
2022/03/31 06:16:35;;;;;;;13.38;8.50;;;2.40;99.90;;;;;;5035078;28;20136;-79
2022/03/31 06:19:01;;;;;;;12.85;8.60;;;2.30;99.90;;;;;;5035020;28;20132;-78
2022/03/31 06:21:26;;;;;;;11.90;8.10;;;2.30;99.90;;;;;;5035199;28;20056;-77
2022/03/31 06:23:52;;;;;;;12.85;8.90;;;2.30;99.90;;;;;;5034487;28;20064;-77
2022/03/31 06:26:18;;;;;;;12.15;8.80;;;2.20;99.90;;;;;;5034793;28;20052;-76
2022/03/31 06:28:43;;;;;;;13.25;8.23;;;2.20;99.90;;;;;;5034930;28;20175;-76
2022/03/31 06:31:09;;;;;;;16.67;9.55;;;2.20;99.90;;;;;;5035048;28;20065;-78
2022/03/31 06:33:35;;;;;;;13.13;8.75;;;2.20;99.90;;;;;;5034533;28;20498;-79
2022/03/31 06:36:01;;;;;;;12.85;8.82;;;2.20;99.90;;;;;;5034806;28;20049;-78
2022/03/31 06:38:27;;;;;;;16.80;10.35;;;2.30;99.90;;;;;;5034416;28;20132;-78
2022/03/31 06:41:10;;;;;;;16.17;11.07;;;2.20;99.90;;;;;;5034938;28;20046;-76
2022/03/31 06:43:41;;;;;;;14.68;9.85;;;2.30;99.90;;;;;;5017535;28;20046;-77
2022/03/31 06:46:08;;;;;;;15.63;10.38;;;2.90;99.90;;;;;;5034471;28;20124;-77
2022/03/31 06:48:36;;;;;;;16.83;9.95;;;2.30;99.90;;;;;;5034390;28;20051;-79
2022/03/31 06:51:03;;;;;;;15.55;9.73;;;2.30;99.90;;;;;;5034135;28;20496;-75
2022/03/31 06:53:28;;;;;;;15.13;9.57;;;2.30;99.90;;;;;;5034478;28;20511;-78
2022/03/31 06:55:54;;;;;;;15.40;10.45;;;2.30;99.90;;;;;;5034455;28;20045;-79
2022/03/31 06:58:25;;;;;;;13.00;9.48;;;2.30;99.90;;;;;;5034317;28;20383;-80
2022/03/31 07:00:51;;;;;;;16.27;10.55;;;2.30;99.90;;;;;;5034174;28;20053;-80
2022/03/31 07:03:16;;;;;;;15.73;10.37;;;2.30;99.90;;;;;;5034138;28;20045;-78
2022/03/31 07:05:42;;;;;;;16.70;10.30;;;2.30;99.90;;;;;;5033761;28;20045;-79
2022/03/31 07:08:08;;;;;;;17.08;9.88;;;2.30;99.90;;;;;;5034155;28;20087;-79
2022/03/31 07:10:33;;;;;;;17.55;10.70;;;2.40;99.90;;;;;;5034323;28;20049;-80
2022/03/31 07:13:00;;;;;;;17.10;10.77;;;2.40;99.90;;;;;;5033943;28;20056;-80
2022/03/31 07:15:27;;;;;;;15.70;10.07;;;2.40;99.90;;;;;;5033959;28;20045;-80
2022/03/31 07:17:54;;;;;;;15.30;10.48;;;2.40;99.90;;;;;;5016445;28;20037;-81
2022/03/31 07:20:24;;;;;;;17.05;10.82;;;2.40;99.90;;;;;;5033986;28;20042;-81
2022/03/31 07:22:50;;;;;;;15.57;10.65;;;2.40;99.90;;;;;;5033957;28;20049;-80
2022/03/31 07:25:17;;;;;;;17.15;10.65;;;2.40;99.90;;;;;;5033779;28;20041;-79
2022/03/31 07:27:44;;;;;;;15.95;10.82;;;2.40;99.90;;;;;;5033937;28;20103;-77
2022/03/31 07:30:10;;;;;;;;;;;2.50;99.90;;;;;;5034546;28;20144;-79
2022/03/31 07:32:46;;;;;;;16.55;10.75;;;2.50;99.90;;;;;;5032882;28;19921;-80
2022/03/31 07:35:11;;;;;;;19.25;10.13;;;2.60;99.90;;;;;;5034191;28;20072;-78
2022/03/31 07:37:37;;;;;;;18.98;11.23;;;2.60;99.90;;;;;;5034011;28;20046;-79
2022/03/31 07:40:03;;;;;;;19.50;12.80;;;2.70;99.90;;;;;;5034125;28;20053;-79
2022/03/31 07:42:28;;;;;;;18.35;12.35;;;2.70;99.90;;;;;;5033963;28;20041;-78
2022/03/31 07:44:54;;;;;;;30.83;12.23;;;2.70;99.90;;;;;;5033719;28;20048;-78
2022/03/31 07:47:19;;;;;;;17.60;11.93;;;2.70;99.90;;;;;;5033236;28;20080;-77
2022/03/31 07:49:49;;;;;;;20.08;12.93;;;2.70;99.90;;;;;;5033842;28;20053;-79
2022/03/31 07:52:15;;;;;;;18.63;11.68;;;2.80;99.90;;;;;;5033467;28;20404;-77
2022/03/31 07:54:40;;;;;;;20.85;12.77;;;2.80;99.90;;;;;;5033535;28;20041;-79
2022/03/31 07:57:06;;;;;;;20.17;10.82;;;2.80;99.90;;;;;;5033635;28;20068;-79
2022/03/31 07:59:33;;;;;;;21.90;13.02;;;2.80;99.90;;;;;;5033141;28;20053;-78
2022/03/31 08:02:02;;;;;;;21.10;12.50;;;2.80;99.90;;;;;;5033151;28;20134;-78
2022/03/31 08:04:28;;;;;;;20.13;12.63;;;2.90;99.90;;;;;;5033308;28;20038;-77
2022/03/31 08:06:54;;;;;;;20.90;13.32;;;2.90;99.90;;;;;;5033352;28;20041;-75
2022/03/31 08:09:21;;;;;;;26.70;16.15;;;3.00;99.90;;;;;;5033470;28;20049;-73
2022/03/31 08:11:50;;;;;;;19.38;12.80;;;3.00;99.90;;;;;;5033369;28;20041;-75
2022/03/31 08:14:19;;;;;;;22.40;12.90;;;3.00;99.90;;;;;;5037154;28;20037;-76
2022/03/31 08:16:47;;;;;;;19.15;11.57;;;3.10;99.90;;;;;;5019512;28;20128;-76
2022/03/31 08:19:13;;;;;;;25.77;12.10;;;3.10;99.90;;;;;;5037384;28;20092;-76
2022/03/31 08:21:39;;;;;;;21.13;13.07;;;3.10;99.90;;;;;;5037329;28;20050;-75
2022/03/31 08:24:05;;;;;;;19.85;12.40;;;3.10;99.90;;;;;;5036556;28;20033;-77
2022/03/31 08:26:30;;;;;;;18.20;12.25;;;3.10;99.90;;;;;;5036964;28;20114;-79
2022/03/31 08:28:56;;;;;;;28.25;13.45;;;3.10;99.90;;;;;;5037012;28;20438;-77
2022/03/31 08:31:22;;;;;;;16.92;11.98;;;3.10;99.90;;;;;;5036707;28;20053;-76
2022/03/31 08:33:48;;;;;;;18.90;10.30;;;3.10;99.90;;;;;;5037040;28;20045;-75
2022/03/31 08:36:13;;;;;;;17.85;11.93;;;3.10;99.90;;;;;;5037203;28;20389;-77
2022/03/31 08:38:39;;;;;;;17.85;11.13;;;3.20;99.90;;;;;;5036882;28;20041;-77
2022/03/31 08:41:05;;;;;;;24.63;11.65;;;3.10;99.90;;;;;;5036776;28;20131;-78
2022/03/31 08:43:32;;;;;;;14.30;9.18;;;3.20;99.90;;;;;;5036696;28;20056;-77
2022/03/31 08:45:57;;;;;;;16.23;11.10;;;4.20;99.90;;;;;;5036600;28;20072;-75
2022/03/31 08:48:24;;;;;;;18.45;11.38;;;3.20;99.90;;;;;;5033401;28;20045;-75
2022/03/31 08:50:50;;;;;;;15.73;10.10;;;3.10;99.90;;;;;;5026066;28;20088;-75
2022/03/31 08:53:16;;;;;;;18.45;11.57;;;3.20;99.90;;;;;;5026486;28;20049;-76
2022/03/31 08:55:41;;;;;;;13.52;9.30;;;3.20;99.90;;;;;;5024537;28;20119;-78
2022/03/31 08:58:08;;;;;;;20.95;11.35;;;3.20;99.90;;;;;;5025785;28;20044;-76
2022/03/31 09:00:34;;;;;;;10.20;6.85;;;3.20;99.90;;;;;;5026253;28;20034;-77
2022/03/31 09:03:03;;;;;;;9.80;7.15;;;3.20;99.90;;;;;;5024323;28;20092;-76
2022/03/31 09:05:42;;;;;;;14.75;6.78;;;3.20;99.90;;;;;;5025117;28;20393;-78
2022/03/31 09:08:11;;;;;;;7.88;5.70;;;3.10;99.90;;;;;;5026237;28;20042;-79
2022/03/31 09:10:42;;;;;;;8.80;5.72;;;3.10;99.90;;;;;;5026942;28;20037;-78
2022/03/31 09:13:30;;;;;;;8.63;6.30;;;3.20;99.90;;;;;;5034318;28;20084;-78
2022/03/31 09:15:56;;;;;;;8.13;7.03;;;3.20;99.90;;;;;;5036280;28;20099;-77
2022/03/31 09:18:24;;;;;;;13.70;9.13;;;3.20;99.90;;;;;;5036315;28;20059;-77
2022/03/31 09:20:58;;;;;;;11.15;7.35;;;3.30;99.90;;;;;;5036045;28;20081;-76
2022/03/31 09:23:27;;;;;;;11.30;6.53;;;3.30;99.90;;;;;;5036097;28;20048;-76
2022/03/31 09:26:00;;;;;;;8.35;5.85;;;3.30;99.90;;;;;;5035923;28;20042;-78
2022/03/31 09:28:26;;;;;;;9.30;7.28;;;3.30;99.90;;;;;;5036033;28;20533;-75
2022/03/31 09:30:54;;;;;;;8.88;6.22;;;3.30;99.90;;;;;;5035767;28;20148;-76
2022/03/31 09:33:37;;;;;;;8.35;5.97;;;3.20;99.90;;;;;;5035996;28;20045;-77
2022/03/31 09:36:08;;;;;;;7.55;5.85;;;3.20;99.90;;;;;;5036011;28;20049;-78
2022/03/31 09:38:36;;;;;;;8.30;5.50;;;3.20;99.90;;;;;;5035782;28;20492;-78
2022/03/31 09:41:23;;;;;;;7.80;5.32;;;3.20;99.90;;;;;;5035771;28;20053;-78
2022/03/31 09:43:51;;;;;;;7.72;4.95;;;3.10;99.90;;;;;;5034712;28;20501;-77
2022/03/31 09:46:22;;;;;;;6.03;4.55;;;3.10;99.90;;;;;;5036003;28;20505;-77
2022/03/31 09:48:49;;;;;;;5.10;3.92;;;2.90;99.90;;;;;;5036054;28;20054;-76
2022/03/31 09:51:15;;;;;;;4.90;3.85;;;2.70;99.90;;;;;;5035753;28;20049;-76
2022/03/31 09:53:41;;;;;;;5.38;3.75;;;2.70;99.90;;;;;;5035588;28;20547;-76
2022/03/31 09:56:07;;;;;;;5.75;4.15;;;2.60;99.90;;;;;;5035582;28;20054;-75
2022/03/31 09:58:37;;;;;;;6.63;4.38;;;2.50;99.90;;;;;;5035763;28;20084;-78
2022/03/31 10:01:04;;;;;;;5.50;4.07;;;2.50;99.90;;;;;;5036014;28;20053;-78
2022/03/31 10:03:30;;;;;;;5.72;4.00;;;2.40;99.90;;;;;;5035620;28;20676;-78
2022/03/31 10:05:57;;;;;;;5.97;4.00;;;2.40;99.90;;;;;;5035482;28;20132;-79
2022/03/31 10:08:23;;;;;;;6.10;4.25;;;2.40;99.90;;;;;;5035531;28;20045;-76
2022/03/31 10:10:49;;;;;;;6.93;4.28;;;2.30;99.90;;;;;;5017515;28;20436;-76
2022/03/31 10:13:24;;;;;;;5.32;3.83;;;2.30;99.90;;;;;;5035336;28;20049;-77
2022/03/31 10:15:58;;;;;;;6.25;3.97;;;2.20;99.90;;;;;;5034911;28;20043;-76
2022/03/31 10:18:24;;;;;;;5.18;3.78;;;1.60;99.90;;;;;;5035458;28;20055;-75
2022/03/31 10:20:59;;;;;;;7.60;3.63;;;2.00;99.90;;;;;;5035142;28;20128;-77
2022/03/31 10:26:27;;;;;;;5.78;3.72;;;2.00;99.90;;;;;;5034968;28;20053;-77
2022/03/31 10:29:11;;;;;;;5.20;3.63;;;1.90;99.90;;;;;;5035095;28;20124;-76
2022/03/31 10:31:42;;;;;;;4.43;3.40;;;1.90;99.90;;;;;;5034845;28;20099;-74
2022/03/31 10:34:09;;;;;;;4.88;3.45;;;1.90;99.90;;;;;;5034726;28;20037;-77
2022/03/31 10:36:43;;;;;;;4.72;3.40;;;1.90;99.90;;;;;;5034074;28;20046;-76
2022/03/31 10:39:19;;;;;;;4.97;3.67;;;2.00;99.90;;;;;;5034496;28;20485;-76
2022/03/31 10:41:47;;;;;;;4.15;3.40;;;2.00;99.90;;;;;;5034653;28;20063;-74
2022/03/31 10:44:12;;;;;;;5.93;3.50;;;2.00;99.90;;;;;;5034373;28;20071;-77
2022/03/31 10:46:39;;;;;;;4.43;3.60;;;1.90;99.90;;;;;;5034652;28;20514;-74
2022/03/31 10:49:12;;;;;;;4.68;3.67;;;1.90;99.90;;;;;;5034284;28;20128;-79
2022/03/31 10:51:40;;;;;;;4.63;3.53;;;1.90;99.90;;;;;;5034726;28;20045;-77
2022/03/31 10:54:09;;;;;;;7.38;3.97;;;1.90;99.90;;;;;;5034318;28;20053;-75
2022/03/31 10:56:35;;;;;;;5.95;3.70;;;2.00;99.90;;;;;;5034247;28;20056;-77
2022/03/31 10:59:06;;;;;;;5.95;4.32;;;2.00;99.90;;;;;;5034392;28;20043;-74
2022/03/31 11:01:35;;;;;;;5.55;3.97;;;2.00;99.90;;;;;;5034832;28;20060;-77
2022/03/31 11:04:07;;;;;;;5.32;4.05;;;2.10;99.90;;;;;;5034554;28;20397;-77
2022/03/31 11:06:33;;;;;;;4.38;3.35;;;2.20;99.90;;;;;;5023595;28;20046;-78
2022/03/31 11:08:58;;;;;;;4.82;3.67;;;2.20;99.90;;;;;;5014717;28;20057;-77
2022/03/31 11:11:29;;;;;;;5.68;4.00;;;2.30;99.90;;;;;;5013458;28;20071;-77
2022/03/31 11:13:57;;;;;;;5.30;4.00;;;2.30;99.90;;;;;;5028646;28;20045;-75
2022/03/31 11:16:33;;;;;;;6.88;4.43;;;2.30;99.90;;;;;;5033936;28;20393;-77
2022/03/31 11:19:04;;;;;;;6.13;4.75;;;2.40;99.90;;;;;;5033687;28;20052;-74
2022/03/31 11:21:42;;;;;;;7.07;4.72;;;2.40;99.90;;;;;;5033694;28;20098;-76
2022/03/31 11:24:10;;;;;;;6.60;4.60;;;2.40;99.90;;;;;;5033328;28;20042;-76
2022/03/31 11:26:41;;;;;;;8.23;5.13;;;2.50;99.90;;;;;;5033238;28;20049;-76
2022/03/31 11:29:18;;;;;;;7.18;4.97;;;2.60;99.90;;;;;;5033360;28;20050;-76
2022/03/31 11:31:52;;;;;;;6.88;4.90;;;2.60;99.90;;;;;;5033308;28;20065;-76
2022/03/31 11:34:21;;;;;;;8.35;5.78;;;2.70;99.90;;;;;;5033611;28;20042;-77
2022/03/31 11:36:47;;;;;;;8.35;5.55;;;2.60;99.90;;;;;;5033378;28;20508;-77
2022/03/31 11:39:13;;;;;;;9.03;5.90;;;2.60;99.90;;;;;;5033168;28;20049;-78
2022/03/31 11:41:41;;;;;;;9.80;6.15;;;2.60;99.90;;;;;;5033308;28;20060;-77
2022/03/31 11:44:07;;;;;;;10.68;7.25;;;2.70;99.90;;;;;;5033351;28;20107;-78
2022/03/31 11:46:48;;;;;;;9.98;6.85;;;2.70;99.90;;;;;;5033751;28;20413;-77
2022/03/31 11:49:23;;;;;;;9.80;7.07;;;2.70;99.90;;;;;;5033107;28;20049;-75
2022/03/31 11:52:00;;;;;;;9.68;6.50;;;2.80;99.90;;;;;;5033157;28;20056;-76
2022/03/31 11:54:29;;;;;;;10.80;7.03;;;2.80;99.90;;;;;;5033310;28;20405;-75
2022/03/31 11:57:09;;;;;;;11.93;7.82;;;2.80;99.90;;;;;;5033436;28;20045;-76
2022/03/31 11:59:35;;;;;;;13.10;8.15;;;2.80;99.90;;;;;;5033211;28;20087;-75
2022/03/31 12:02:11;;;;;;;13.32;8.45;;;2.90;99.90;;;;;;5033135;28;20091;-78
2022/03/31 12:04:38;;;;;;;14.70;9.20;;;2.90;99.90;;;;;;5033232;28;20081;-76
2022/03/31 12:07:04;;;;;;;16.25;9.65;;;3.00;99.90;;;;;;5029368;28;20087;-76
2022/03/31 12:09:30;;;;;;;16.85;9.80;;;2.60;99.90;;;;;;5032851;28;20099;-76
2022/03/31 12:11:57;;;;;;;17.33;10.13;;;3.00;99.90;;;;;;5032795;28;20041;-74
2022/03/31 12:14:28;;;;;;;16.67;10.60;;;3.10;99.90;;;;;;5033158;28;20076;-74
2022/03/31 12:16:56;;;;;;;20.67;11.52;;;3.10;99.90;;;;;;5033181;28;20064;-76
2022/03/31 12:19:22;;;;;;;21.33;12.40;;;3.20;99.90;;;;;;5033132;28;20042;-74
2022/03/31 12:21:56;;;;;;;20.08;12.05;;;3.20;99.90;;;;;;5032878;28;20398;-75
2022/03/31 12:24:22;;;;;;;23.95;12.65;;;3.30;99.90;;;;;;5032556;28;20077;-75
2022/03/31 12:27:01;;;;;;;22.43;13.37;;;3.30;99.90;;;;;;5032806;28;20045;-76
2022/03/31 12:29:31;;;;;;;24.63;13.82;;;3.40;99.90;;;;;;5032562;28;20343;-76
2022/03/31 12:32:07;;;;;;;23.45;13.70;;;3.40;99.90;;;;;;5032873;28;20049;-75
2022/03/31 12:34:35;;;;;;;26.13;15.90;;;3.50;99.90;;;;;;5032412;28;20084;-75
2022/03/31 12:37:01;;;;;;;27.75;15.32;;;3.50;99.90;;;;;;5032166;28;20046;-80
2022/03/31 12:39:27;;;;;;;27.10;15.35;;;3.60;99.90;;;;;;5033079;28;20099;-79
2022/03/31 12:41:55;;;;;;;28.30;16.13;;;3.60;99.90;;;;;;5015777;28;20046;-78
2022/03/31 12:44:24;;;;;;;35.28;20.48;;;3.70;99.90;;;;;;5015318;28;20057;-79
2022/03/31 12:46:59;;;;;;;35.60;19.42;;;3.70;99.90;;;;;;5015230;28;20080;-81
2022/03/31 12:49:34;;;;;;;35.63;18.65;;;3.80;99.90;;;;;;5031677;28;20049;-80
2022/03/31 12:52:02;;;;;;;37.00;19.30;;;3.80;99.90;;;;;;5014911;28;20041;-80
2022/03/31 12:54:39;;;;;;;37.65;20.70;;;3.90;99.90;;;;;;5015117;28;20045;-78
2022/03/31 12:57:12;;;;;;;32.83;18.92;;;3.90;99.90;;;;;;5032587;28;20107;-81